Time,TemperatureF,DewpointF,PressureIn,WindDirection,WindDirectionDegrees,WindSpeedMPH,WindSpeedGustMPH,Humidity,HourlyPrecipIn,Conditions,Clouds,dailyrainin,SoftwareType,DateUTC
2013-05-21 00:00:00,62.1,43.8,29.55,NNW,338,2.0,5.0,51,0.00,,,0.00,VWS V14.01,2013-05-21 07:00:00,
2013-05-21 00:01:00,52.0,42.5,29.48,North,351,2.0,18.0,70,0.00,,,0.00,VWS V14.01,2013-05-21 07:01:00,
2013-05-21 00:06:00,51.9,42.8,29.48,North,351,4.0,18.0,71,0.00,,,0.00,VWS V14.01,2013-05-21 07:06:00,
2013-05-21 00:11:00,52.0,42.5,29.48,North,351,2.0,18.0,70,0.00,,,0.00,VWS V14.01,2013-05-21 07:11:00,
2013-05-21 00:16:00,51.9,42.4,29.49,North,351,1.0,18.0,70,0.00,,,0.00,VWS V14.01,2013-05-21 07:16:00,
2013-05-21 00:21:00,51.8,42.7,29.48,North,351,3.0,18.0,71,0.00,,,0.00,VWS V14.01,2013-05-21 07:21:00,
2013-05-21 00:26:00,51.8,42.3,29.48,North,351,0.0,18.0,70,0.00,,,0.00,VWS V14.01,2013-05-21 07:26:00,
2013-05-21 00:30:00,60.9,45.1,29.55,NNW,338,0.0,1.0,56,0.00,,,0.00,VWS V14.01,2013-05-21 07:30:00,
2013-05-21 00:31:00,51.8,42.3,29.48,North,351,1.0,18.0,70,0.00,,,0.00,VWS V14.01,2013-05-21 07:31:00,
2013-05-21 00:36:00,51.8,42.3,29.48,North,359,2.0,18.0,70,0.00,,,0.00,VWS V14.01,2013-05-21 07:36:00,
2013-05-21 00:41:00,51.9,42.4,29.48,North,359,3.0,18.0,70,0.00,,,0.00,VWS V14.01,2013-05-21 07:41:00,
2013-05-21 00:46:00,51.9,42.4,29.48,North,359,2.0,18.0,70,0.00,,,0.00,VWS V14.01,2013-05-21 07:46:00,
2013-05-21 00:51:00,51.9,42.4,29.48,North,359,0.0,18.0,70,0.00,,,0.00,VWS V14.01,2013-05-21 07:51:00,
2013-05-21 00:56:00,51.9,42.1,29.47,North,359,0.0,18.0,69,0.00,,,0.00,VWS V14.01,2013-05-21 07:56:00,
2013-05-21 01:00:00,58.5,44.2,29.54,NNW,338,0.0,0.0,59,0.00,,,0.00,VWS V14.01,2013-05-21 08:00:00,
2013-05-21 01:01:00,51.8,42.3,29.48,North,359,0.0,18.0,70,0.00,,,0.00,VWS V14.01,2013-05-21 08:01:00,
2013-05-21 01:06:00,51.7,42.6,29.48,North,359,0.0,18.0,71,0.00,,,0.00,VWS V14.01,2013-05-21 08:06:00,
2013-05-21 01:11:00,51.6,42.2,29.48,North,359,0.0,18.0,70,0.00,,,0.00,VWS V14.01,2013-05-21 08:11:00,
2013-05-21 01:16:00,51.4,42.3,29.48,North,359,0.0,18.0,71,0.00,,,0.00,VWS V14.01,2013-05-21 08:16:00,
2013-05-21 01:21:00,51.4,42.3,29.48,North,359,0.0,18.0,71,0.00,,,0.00,VWS V14.01,2013-05-21 08:21:00,
2013-05-21 01:26:00,51.3,42.2,29.47,North,359,0.0,18.0,71,0.00,,,0.00,VWS V14.01,2013-05-21 08:26:00,
2013-05-21 01:30:00,57.1,43.8,29.54,NNW,338,0.0,0.0,61,0.00,,,0.00,VWS V14.01,2013-05-21 08:30:00,
2013-05-21 01:31:00,51.1,42.0,29.48,North,359,0.0,18.0,71,0.00,,,0.00,VWS V14.01,2013-05-21 08:31:00,
2013-05-21 01:36:00,51.0,41.9,29.48,North,359,1.0,18.0,71,0.00,,,0.00,VWS V14.01,2013-05-21 08:36:00,
2013-05-21 01:41:00,51.1,42.0,29.47,North,359,1.0,18.0,71,0.00,,,0.00,VWS V14.01,2013-05-21 08:41:00,
2013-05-21 01:46:00,51.4,42.3,29.48,North,359,4.0,18.0,71,0.00,,,0.00,VWS V14.01,2013-05-21 08:46:00,
2013-05-21 01:51:00,52.0,41.8,29.47,NNW,346,4.0,18.0,68,0.00,,,0.00,VWS V14.01,2013-05-21 08:51:00,
2013-05-21 01:56:00,52.9,41.9,29.47,NNW,340,6.0,18.0,66,0.00,,,0.00,VWS V14.01,2013-05-21 08:56:00,
2013-05-21 02:00:00,57.5,43.7,29.54,NNW,338,0.0,0.0,60,0.00,,,0.00,VWS V14.01,2013-05-21 09:00:00,
2013-05-21 02:01:00,53.5,41.6,29.47,North,352,5.0,18.0,64,0.00,,,0.00,VWS V14.01,2013-05-21 09:01:00,
2013-05-21 02:06:00,53.7,41.4,29.47,NNW,346,3.0,18.0,63,0.00,,,0.00,VWS V14.01,2013-05-21 09:06:00,
2013-05-21 02:11:00,53.8,41.5,29.48,NNW,337,3.0,18.0,63,0.00,,,0.00,VWS V14.01,2013-05-21 09:11:00,
2013-05-21 02:16:00,53.8,41.1,29.47,NNW,336,2.0,18.0,62,0.00,,,0.00,VWS V14.01,2013-05-21 09:16:00,
2013-05-21 02:21:00,53.9,41.2,29.47,North,354,5.0,18.0,62,0.00,,,0.00,VWS V14.01,2013-05-21 09:21:00,
2013-05-21 02:26:00,53.7,41.0,29.47,North,352,2.0,18.0,62,0.00,,,0.00,VWS V14.01,2013-05-21 09:26:00,
2013-05-21 02:30:00,56.9,43.6,29.54,NNW,338,0.0,2.0,61,0.00,,,0.00,VWS V14.01,2013-05-21 09:30:00,
2013-05-21 02:31:00,53.6,41.3,29.47,NNW,348,2.0,18.0,63,0.00,,,0.00,VWS V14.01,2013-05-21 09:31:00,
2013-05-21 02:36:00,53.4,41.1,29.47,NNW,348,1.0,18.0,63,0.00,,,0.00,VWS V14.01,2013-05-21 09:36:00,
2013-05-21 02:41:00,53.3,41.0,29.47,NNW,348,1.0,18.0,63,0.00,,,0.00,VWS V14.01,2013-05-21 09:41:00,
2013-05-21 02:46:00,53.2,41.0,29.47,North,356,2.0,18.0,63,0.00,,,0.00,VWS V14.01,2013-05-21 09:46:00,
2013-05-21 02:51:00,53.3,41.0,29.46,North,356,1.0,18.0,63,0.00,,,0.00,VWS V14.01,2013-05-21 09:51:00,
2013-05-21 02:56:00,53.3,40.6,29.46,North,356,1.0,18.0,62,0.00,,,0.00,VWS V14.01,2013-05-21 09:56:00,
2013-05-21 03:00:00,56.8,43.1,29.53,NNW,338,0.0,0.0,60,0.00,,,0.00,VWS V14.01,2013-05-21 10:00:00,
2013-05-21 03:01:00,53.3,40.2,29.46,North,356,0.0,18.0,61,0.00,,,0.00,VWS V14.01,2013-05-21 10:01:00,
2013-05-21 03:06:00,53.3,39.8,29.46,North,356,0.0,18.0,60,0.00,,,0.00,VWS V14.01,2013-05-21 10:06:00,
2013-05-21 03:11:00,53.3,39.8,29.47,North,356,1.0,18.0,60,0.00,,,0.00,VWS V14.01,2013-05-21 10:11:00,
2013-05-21 03:30:00,56.6,42.5,29.53,NNW,338,1.0,3.0,59,0.00,,,0.00,VWS V14.01,2013-05-21 10:30:00,
2013-05-21 03:33:00,53.9,39.0,29.47,North,355,2.0,18.0,57,0.00,,,0.00,VWS V14.01,2013-05-21 10:33:00,
2013-05-21 03:38:00,54.0,39.6,29.46,North,355,3.0,18.0,58,0.00,,,0.00,VWS V14.01,2013-05-21 10:38:00,
2013-05-21 03:43:00,54.2,39.3,29.46,North,349,1.0,18.0,57,0.00,,,0.00,VWS V14.01,2013-05-21 10:43:00,
2013-05-21 03:48:00,54.3,39.0,29.46,NNW,348,3.0,18.0,56,0.00,,,0.00,VWS V14.01,2013-05-21 10:48:00,
2013-05-21 03:53:00,54.3,39.0,29.46,NNW,339,2.0,18.0,56,0.00,,,0.00,VWS V14.01,2013-05-21 10:53:00,
2013-05-21 03:58:00,54.3,39.0,29.46,NNW,342,3.0,18.0,56,0.00,,,0.00,VWS V14.01,2013-05-21 10:58:00,
2013-05-21 04:00:00,58.6,41.0,29.53,NNW,338,2.0,4.0,52,0.00,,,0.00,VWS V14.01,2013-05-21 11:00:00,
2013-05-21 04:03:00,54.5,38.7,29.46,NNW,339,3.0,18.0,55,0.00,,,0.00,VWS V14.01,2013-05-21 11:03:00,
2013-05-21 04:08:00,54.7,38.9,29.46,NNW,342,1.0,18.0,55,0.00,,,0.00,VWS V14.01,2013-05-21 11:08:00,
2013-05-21 04:13:00,54.8,39.0,29.46,NNW,340,2.0,18.0,55,0.00,,,0.00,VWS V14.01,2013-05-21 11:13:00,
2013-05-21 04:18:00,54.8,39.0,29.46,NNW,339,1.0,18.0,55,0.00,,,0.00,VWS V14.01,2013-05-21 11:18:00,
2013-05-21 04:23:00,54.6,39.2,29.47,NNW,348,1.0,18.0,56,0.00,,,0.00,VWS V14.01,2013-05-21 11:23:00,
2013-05-21 04:28:00,54.5,38.7,29.47,NNW,347,5.0,18.0,55,0.00,,,0.00,VWS V14.01,2013-05-21 11:28:00,
2013-05-21 04:30:00,61.0,41.7,29.54,NNW,338,2.0,4.0,49,0.00,,,0.00,VWS V14.01,2013-05-21 11:30:00,
2013-05-21 04:33:00,54.7,38.9,29.47,NNW,343,4.0,18.0,55,0.00,,,0.00,VWS V14.01,2013-05-21 11:33:00,
2013-05-21 04:38:00,55.1,38.8,29.46,NNW,334,3.0,18.0,54,0.00,,,0.00,VWS V14.01,2013-05-21 11:38:00,
2013-05-21 04:43:00,55.4,38.6,29.47,NNW,333,6.0,18.0,53,0.00,,,0.00,VWS V14.01,2013-05-21 11:43:00,
2013-05-21 04:48:00,55.5,38.7,29.47,NNW,332,4.0,18.0,53,0.00,,,0.00,VWS V14.01,2013-05-21 11:48:00,
2013-05-21 04:53:00,55.1,38.8,29.47,NNW,332,4.0,18.0,54,0.00,,,0.00,VWS V14.01,2013-05-21 11:53:00,
2013-05-21 04:58:00,54.8,39.0,29.47,NNW,328,7.0,18.0,55,0.00,,,0.00,VWS V14.01,2013-05-21 11:58:00,
2013-05-21 05:00:00,61.3,42.5,29.53,NNW,338,0.0,0.0,50,0.00,,,0.00,VWS V14.01,2013-05-21 12:00:00,
2013-05-21 05:04:00,54.8,39.0,29.48,NNW,333,6.0,18.0,55,0.00,,,0.00,VWS V14.01,2013-05-21 12:04:00,
2013-05-21 05:09:00,54.4,39.5,29.48,NNW,329,6.0,18.0,57,0.00,,,0.00,VWS V14.01,2013-05-21 12:09:00,
2013-05-21 05:14:00,54.1,39.7,29.48,NNW,327,8.0,18.0,58,0.00,,,0.00,VWS V14.01,2013-05-21 12:14:00,
2013-05-21 05:19:00,53.9,39.5,29.49,NNW,343,7.0,18.0,58,0.00,,,0.00,VWS V14.01,2013-05-21 12:19:00,
2013-05-21 05:24:00,53.8,39.8,29.49,NNW,327,6.0,18.0,59,0.00,,,0.00,VWS V14.01,2013-05-21 12:24:00,
2013-05-21 05:29:00,53.6,40.1,29.49,NW,323,4.0,18.0,60,0.00,,,0.00,VWS V14.01,2013-05-21 12:29:00,
2013-05-21 05:30:00,59.0,45.2,29.54,NNW,338,0.0,0.0,60,0.00,,,0.00,VWS V14.01,2013-05-21 12:30:00,
2013-05-21 05:34:00,53.3,40.2,29.49,NW,322,5.0,18.0,61,0.00,,,0.00,VWS V14.01,2013-05-21 12:34:00,
2013-05-21 05:39:00,53.1,40.0,29.49,NW,322,5.0,18.0,61,0.00,,,0.00,VWS V14.01,2013-05-21 12:39:00,
2013-05-21 05:44:00,52.7,40.1,29.49,NW,323,5.0,18.0,62,0.00,,,0.00,VWS V14.01,2013-05-21 12:44:00,
2013-05-21 05:49:00,52.5,40.3,29.50,NW,324,3.0,18.0,63,0.00,,,0.00,VWS V14.01,2013-05-21 12:49:00,
2013-05-21 05:54:00,52.3,40.1,29.49,NW,324,3.0,18.0,63,0.00,,,0.00,VWS V14.01,2013-05-21 12:54:00,
2013-05-21 05:59:00,52.2,39.6,29.49,NW,323,3.0,18.0,62,0.00,,,0.00,VWS V14.01,2013-05-21 12:59:00,
2013-05-21 06:00:00,57.3,44.4,29.54,NNW,338,0.0,0.0,62,0.00,,,0.00,VWS V14.01,2013-05-21 13:00:00,
2013-05-21 06:04:00,52.4,39.4,29.50,NW,323,3.0,18.0,61,0.00,,,0.00,VWS V14.01,2013-05-21 13:04:00,
2013-05-21 06:09:00,52.5,39.0,29.49,NW,324,4.0,18.0,60,0.00,,,0.00,VWS V14.01,2013-05-21 13:09:00,
2013-05-21 06:14:00,52.6,38.7,29.49,NW,324,6.0,18.0,59,0.00,,,0.00,VWS V14.01,2013-05-21 13:14:00,
2013-05-21 06:19:00,52.8,38.5,29.49,NW,324,2.0,18.0,58,0.00,,,0.00,VWS V14.01,2013-05-21 13:19:00,
2013-05-21 06:24:00,53.1,38.3,29.49,NW,321,4.0,18.0,57,0.00,,,0.00,VWS V14.01,2013-05-21 13:24:00,
2013-05-21 06:29:00,53.4,38.1,29.50,NW,323,6.0,18.0,56,0.00,,,0.00,VWS V14.01,2013-05-21 13:29:00,
2013-05-21 06:30:00,55.4,42.6,29.53,NNW,338,0.0,3.0,62,0.00,,,0.00,VWS V14.01,2013-05-21 13:30:00,
2013-05-21 06:34:00,53.4,38.1,29.50,NW,324,4.0,18.0,56,0.00,,,0.00,VWS V14.01,2013-05-21 13:34:00,
2013-05-21 06:39:00,53.5,38.2,29.50,NW,324,4.0,18.0,56,0.00,,,0.00,VWS V14.01,2013-05-21 13:39:00,
2013-05-21 06:44:00,53.6,38.3,29.50,NW,323,5.0,18.0,56,0.00,,,0.00,VWS V14.01,2013-05-21 13:44:00,
2013-05-21 06:49:00,53.7,38.4,29.51,NW,323,5.0,18.0,56,0.00,,,0.00,VWS V14.01,2013-05-21 13:49:00,
2013-05-21 06:54:00,53.7,38.8,29.51,NW,323,1.0,18.0,57,0.00,,,0.00,VWS V14.01,2013-05-21 13:54:00,
2013-05-21 06:59:00,53.9,39.5,29.51,NW,323,5.0,18.0,58,0.00,,,0.00,VWS V14.01,2013-05-21 13:59:00,
2013-05-21 07:00:00,54.8,39.9,29.54,NNW,338,0.0,2.0,57,0.00,,,0.00,VWS V14.01,2013-05-21 14:00:00,
2013-05-21 07:04:00,53.9,39.5,29.51,NW,323,7.0,18.0,58,0.00,,,0.00,VWS V14.01,2013-05-21 14:04:00,
2013-05-21 07:09:00,53.9,39.5,29.51,NW,323,4.0,18.0,58,0.00,,,0.00,VWS V14.01,2013-05-21 14:09:00,
2013-05-21 07:14:00,54.1,40.1,29.52,NW,323,2.0,18.0,59,0.00,,,0.00,VWS V14.01,2013-05-21 14:14:00,
2013-05-21 07:19:00,54.4,40.4,29.51,NW,323,5.0,18.0,59,0.00,,,0.00,VWS V14.01,2013-05-21 14:19:00,
2013-05-21 07:24:00,54.8,40.8,29.52,NW,324,3.0,18.0,59,0.00,,,0.00,VWS V14.01,2013-05-21 14:24:00,
2013-05-21 07:29:00,55.2,41.1,29.52,NW,324,4.0,18.0,59,0.00,,,0.00,VWS V14.01,2013-05-21 14:29:00,
2013-05-21 07:30:00,56.1,38.2,29.55,NNW,338,0.0,2.0,51,0.00,,,0.00,VWS V14.01,2013-05-21 14:30:00,
2013-05-21 07:34:00,55.6,41.1,29.52,NW,326,4.0,18.0,58,0.00,,,0.00,VWS V14.01,2013-05-21 14:34:00,
2013-05-21 07:39:00,56.1,41.5,29.52,NNW,331,3.0,18.0,58,0.00,,,0.00,VWS V14.01,2013-05-21 14:39:00,
2013-05-21 07:44:00,56.4,41.8,29.52,NW,326,3.0,18.0,58,0.00,,,0.00,VWS V14.01,2013-05-21 14:44:00,
2013-05-21 07:55:00,54.1,40.1,29.52,NW,315,3.0,9.0,59,0.00,,,0.00,VWS V14.01,2013-05-21 14:55:00,
2013-05-21 08:00:00,57.1,42.5,29.53,NW,323,4.0,9.0,58,0.00,,,0.00,VWS V14.01,2013-05-21 15:00:00,
2013-05-21 08:05:00,57.4,42.8,29.53,NNW,329,5.0,10.0,58,0.00,,,0.00,VWS V14.01,2013-05-21 15:05:00,
2013-05-21 08:10:00,57.6,43.4,29.53,NW,325,3.0,10.0,59,0.00,,,0.00,VWS V14.01,2013-05-21 15:10:00,
2013-05-21 08:15:00,57.8,43.6,29.53,NW,321,3.0,10.0,59,0.00,,,0.00,VWS V14.01,2013-05-21 15:15:00,
2013-05-21 08:21:00,57.9,43.7,29.53,NW,321,2.0,10.0,59,0.00,,,0.00,VWS V14.01,2013-05-21 15:21:00,
2013-05-21 08:26:00,58.0,43.8,29.53,NW,325,5.0,10.0,59,0.00,,,0.00,VWS V14.01,2013-05-21 15:26:00,
2013-05-21 08:30:00,59.9,38.5,29.56,NNW,338,0.0,0.0,45,0.00,,,0.00,VWS V14.01,2013-05-21 15:30:00,
2013-05-21 08:31:00,58.1,44.7,29.53,NNW,327,3.0,10.0,61,0.00,,,0.00,VWS V14.01,2013-05-21 15:31:00,
2013-05-21 08:36:00,58.3,44.5,29.53,NW,326,5.0,10.0,60,0.00,,,0.00,VWS V14.01,2013-05-21 15:36:00,
2013-05-21 08:41:00,58.4,45.0,29.53,NNW,327,6.0,10.0,61,0.00,,,0.00,VWS V14.01,2013-05-21 15:41:00,
2013-05-21 08:46:00,58.7,45.3,29.54,NNW,330,1.0,10.0,61,0.00,,,0.00,VWS V14.01,2013-05-21 15:46:00,
2013-05-21 08:51:00,58.9,45.5,29.54,NNW,339,4.0,10.0,61,0.00,,,0.00,VWS V14.01,2013-05-21 15:51:00,
2013-05-21 08:56:00,59.0,45.6,29.53,NNW,328,5.0,10.0,61,0.00,,,0.00,VWS V14.01,2013-05-21 15:56:00,
2013-05-21 09:00:00,62.2,41.2,29.56,NNW,338,0.0,0.0,46,0.00,,,0.00,VWS V14.01,2013-05-21 16:00:00,
2013-05-21 09:01:00,59.2,45.8,29.54,NW,314,3.0,10.0,61,0.00,,,0.00,VWS V14.01,2013-05-21 16:01:00,
2013-05-21 09:06:00,59.3,45.9,29.54,NW,318,5.0,10.0,61,0.00,,,0.00,VWS V14.01,2013-05-21 16:06:00,
2013-05-21 09:11:00,59.5,46.1,29.53,NW,322,5.0,10.0,61,0.00,,,0.00,VWS V14.01,2013-05-21 16:11:00,
2013-05-21 09:16:00,59.8,46.3,29.54,NNW,333,5.0,10.0,61,0.00,,,0.00,VWS V14.01,2013-05-21 16:16:00,
2013-05-21 09:21:00,59.9,46.0,29.54,NNW,335,5.0,10.0,60,0.00,,,0.00,VWS V14.01,2013-05-21 16:21:00,
2013-05-21 09:26:00,60.0,46.1,29.54,NNW,330,3.0,10.0,60,0.00,,,0.00,VWS V14.01,2013-05-21 16:26:00,
2013-05-21 09:30:00,65.5,42.4,29.56,NNW,338,0.0,0.0,43,0.00,,,0.00,VWS V14.01,2013-05-21 16:30:00,
2013-05-21 09:31:00,60.2,46.3,29.54,NNW,329,5.0,10.0,60,0.00,,,0.00,VWS V14.01,2013-05-21 16:31:00,
2013-05-21 09:36:00,60.3,46.4,29.54,NNW,332,5.0,10.0,60,0.00,,,0.00,VWS V14.01,2013-05-21 16:36:00,
2013-05-21 09:41:00,60.5,46.1,29.54,NNW,336,2.0,10.0,59,0.00,,,0.00,VWS V14.01,2013-05-21 16:41:00,
2013-05-21 09:46:00,61.0,46.6,29.54,NNW,334,6.0,10.0,59,0.00,,,0.00,VWS V14.01,2013-05-21 16:46:00,
2013-05-21 09:51:00,61.0,46.1,29.54,NW,326,7.0,10.0,58,0.00,,,0.00,VWS V14.01,2013-05-21 16:51:00,
2013-05-21 09:56:00,60.8,45.5,29.54,NW,322,3.0,10.0,57,0.00,,,0.00,VWS V14.01,2013-05-21 16:56:00,
2013-05-21 10:00:00,68.0,41.5,29.56,NNW,338,0.0,0.0,38,0.00,,,0.00,VWS V14.01,2013-05-21 17:00:00,
2013-05-21 10:01:00,60.4,45.6,29.55,NW,322,6.0,11.0,58,0.00,,,0.00,VWS V14.01,2013-05-21 17:01:00,
2013-05-21 10:06:00,60.4,45.1,29.54,NW,318,7.0,11.0,57,0.00,,,0.00,VWS V14.01,2013-05-21 17:06:00,
2013-05-21 10:11:00,60.4,45.1,29.54,NW,324,3.0,11.0,57,0.00,,,0.00,VWS V14.01,2013-05-21 17:11:00,
2013-05-21 10:16:00,60.6,45.3,29.54,NW,322,5.0,12.0,57,0.00,,,0.00,VWS V14.01,2013-05-21 17:16:00,
2013-05-21 10:21:00,60.6,45.3,29.55,NW,323,8.0,12.0,57,0.00,,,0.00,VWS V14.01,2013-05-21 17:21:00,
2013-05-21 10:26:00,60.5,45.2,29.54,NW,323,6.0,12.0,57,0.00,,,0.00,VWS V14.01,2013-05-21 17:26:00,
2013-05-21 10:30:00,72.3,43.1,29.56,NNW,338,0.0,3.0,35,0.00,,,0.00,VWS V14.01,2013-05-21 17:30:00,
2013-05-21 10:31:00,60.9,45.1,29.55,NW,324,7.0,12.0,56,0.00,,,0.00,VWS V14.01,2013-05-21 17:31:00,
2013-05-21 10:36:00,60.9,45.1,29.55,NW,322,7.0,12.0,56,0.00,,,0.00,VWS V14.01,2013-05-21 17:36:00,
2013-05-21 10:41:00,61.0,44.7,29.55,NW,325,4.0,12.0,55,0.00,,,0.00,VWS V14.01,2013-05-21 17:41:00,
2013-05-21 10:46:00,61.2,44.9,29.56,NW,323,4.0,12.0,55,0.00,,,0.00,VWS V14.01,2013-05-21 17:46:00,
2013-05-21 10:51:00,61.8,45.0,29.55,NNW,328,5.0,12.0,54,0.00,,,0.00,VWS V14.01,2013-05-21 17:51:00,
2013-05-21 10:56:00,62.6,45.2,29.56,NNW,333,3.0,12.0,53,0.00,,,0.00,VWS V14.01,2013-05-21 17:56:00,
2013-05-21 11:00:00,77.2,40.7,29.55,NNW,338,0.0,5.0,27,0.00,,,0.00,VWS V14.01,2013-05-21 18:00:00,
2013-05-21 11:01:00,63.1,45.2,29.56,NW,321,8.0,12.0,52,0.00,,,0.00,VWS V14.01,2013-05-21 18:01:00,
2013-05-21 11:06:00,62.9,45.0,29.56,NNW,346,11.0,12.0,52,0.00,,,0.00,VWS V14.01,2013-05-21 18:06:00,
2013-05-21 11:11:00,62.5,44.2,29.56,NW,326,6.0,12.0,51,0.00,,,0.00,VWS V14.01,2013-05-21 18:11:00,
2013-05-21 11:16:00,62.4,44.0,29.55,NW,324,6.0,12.0,51,0.00,,,0.00,VWS V14.01,2013-05-21 18:16:00,
2013-05-21 11:21:00,62.6,43.7,29.55,NW,325,10.0,12.0,50,0.00,,,0.00,VWS V14.01,2013-05-21 18:21:00,
2013-05-21 11:26:00,62.4,43.0,29.55,NNW,334,5.0,12.0,49,0.00,,,0.00,VWS V14.01,2013-05-21 18:26:00,
2013-05-21 11:30:00,79.6,39.7,29.55,NNW,338,1.0,7.0,24,0.00,,,0.00,VWS V14.01,2013-05-21 18:30:00,
2013-05-21 11:31:00,62.5,43.1,29.56,NW,322,10.0,12.0,49,0.00,,,0.00,VWS V14.01,2013-05-21 18:31:00,
2013-05-21 11:36:00,62.7,43.8,29.56,NW,326,8.0,12.0,50,0.00,,,0.00,VWS V14.01,2013-05-21 18:36:00,
2013-05-21 11:41:00,62.8,43.4,29.56,NW,326,8.0,12.0,49,0.00,,,0.00,VWS V14.01,2013-05-21 18:41:00,
2013-05-21 11:46:00,63.1,43.1,29.56,NW,326,5.0,12.0,48,0.00,,,0.00,VWS V14.01,2013-05-21 18:46:00,
2013-05-21 11:51:00,63.9,43.8,29.56,NW,325,3.0,12.0,48,0.00,,,0.00,VWS V14.01,2013-05-21 18:51:00,
2013-05-21 11:56:00,64.4,44.3,29.55,NNW,338,2.0,12.0,48,0.00,,,0.00,VWS V14.01,2013-05-21 18:56:00,
2013-05-21 12:00:00,80.2,38.0,29.55,NW,315,1.0,7.0,22,0.00,,,0.00,VWS V14.01,2013-05-21 19:00:00,
2013-05-21 12:01:00,65.2,43.9,29.55,NNW,331,4.0,12.0,46,0.00,,,0.00,VWS V14.01,2013-05-21 19:01:00,
2013-05-21 12:06:00,65.0,43.7,29.55,NNW,336,1.0,12.0,46,0.00,,,0.00,VWS V14.01,2013-05-21 19:06:00,
2013-05-21 12:11:00,65.0,43.7,29.55,NNW,330,5.0,12.0,46,0.00,,,0.00,VWS V14.01,2013-05-21 19:11:00,
2013-05-21 12:16:00,64.8,43.6,29.55,NW,324,7.0,12.0,46,0.00,,,0.00,VWS V14.01,2013-05-21 19:16:00,
2013-05-21 12:21:00,64.8,43.0,29.55,NNW,328,4.0,12.0,45,0.00,,,0.00,VWS V14.01,2013-05-21 19:21:00,
2013-05-21 12:26:00,65.2,42.8,29.55,NW,324,7.0,12.0,44,0.00,,,0.00,VWS V14.01,2013-05-21 19:26:00,
2013-05-21 12:30:00,82.2,35.9,29.55,SE,135,1.0,10.0,19,0.00,,,0.00,VWS V14.01,2013-05-21 19:30:00,
2013-05-21 12:31:00,65.0,42.0,29.55,NNW,344,3.0,12.0,43,0.00,,,0.00,VWS V14.01,2013-05-21 19:31:00,
2013-05-21 12:36:00,64.8,41.8,29.54,NW,322,6.0,12.0,43,0.00,,,0.00,VWS V14.01,2013-05-21 19:36:00,
2013-05-21 12:41:00,64.7,41.7,29.55,NW,320,6.0,12.0,43,0.00,,,0.00,VWS V14.01,2013-05-21 19:41:00,
2013-05-21 12:46:00,64.5,42.1,29.55,NNW,328,7.0,12.0,44,0.00,,,0.00,VWS V14.01,2013-05-21 19:46:00,
2013-05-21 12:51:00,64.3,41.3,29.54,NNW,330,4.0,12.0,43,0.00,,,0.00,VWS V14.01,2013-05-21 19:51:00,
2013-05-21 12:56:00,64.3,41.3,29.54,NW,304,13.0,14.0,43,0.00,,,0.00,VWS V14.01,2013-05-21 19:56:00,
2013-05-21 13:00:00,83.4,36.9,29.54,SE,135,1.0,7.0,19,0.00,,,0.00,VWS V14.01,2013-05-21 20:00:00,
2013-05-21 13:01:00,64.0,40.5,29.55,NW,321,7.0,14.0,42,0.00,,,0.00,VWS V14.01,2013-05-21 20:01:00,
2013-05-21 13:06:00,64.0,40.5,29.54,NW,321,5.0,14.0,42,0.00,,,0.00,VWS V14.01,2013-05-21 20:06:00,
2013-05-21 13:11:00,64.1,40.6,29.54,NW,322,5.0,14.0,42,0.00,,,0.00,VWS V14.01,2013-05-21 20:11:00,
2013-05-21 13:16:00,64.1,41.8,29.54,NW,325,8.0,14.0,44,0.00,,,0.00,VWS V14.01,2013-05-21 20:16:00,
2013-05-21 13:21:00,64.2,41.3,29.54,NNW,332,7.0,14.0,43,0.00,,,0.00,VWS V14.01,2013-05-21 20:21:00,
2013-05-21 13:26:00,64.2,41.3,29.54,NNW,333,6.0,14.0,43,0.00,,,0.00,VWS V14.01,2013-05-21 20:26:00,
2013-05-21 13:30:00,84.0,37.3,29.54,SSE,158,2.0,9.0,19,0.00,,,0.00,VWS V14.01,2013-05-21 20:30:00,
2013-05-21 13:31:00,63.9,41.6,29.54,NNW,329,6.0,14.0,44,0.00,,,0.00,VWS V14.01,2013-05-21 20:31:00,
2013-05-21 13:36:00,63.9,41.6,29.55,NNW,332,8.0,14.0,44,0.00,,,0.00,VWS V14.01,2013-05-21 20:36:00,
2013-05-21 13:41:00,63.7,41.4,29.55,NNW,329,5.0,14.0,44,0.00,,,0.00,VWS V14.01,2013-05-21 20:41:00,
2013-05-21 13:46:00,63.9,42.2,29.55,North,352,4.0,14.0,45,0.00,,,0.00,VWS V14.01,2013-05-21 20:46:00,
2013-05-21 13:51:00,63.8,41.5,29.54,North,350,4.0,14.0,44,0.00,,,0.00,VWS V14.01,2013-05-21 20:51:00,
2013-05-21 13:56:00,64.1,41.2,29.54,NNW,338,8.0,14.0,43,0.00,,,0.00,VWS V14.01,2013-05-21 20:56:00,
2013-05-21 14:00:00,84.0,38.7,29.53,SSE,158,2.0,13.0,20,0.00,,,0.00,VWS V14.01,2013-05-21 21:00:00,
2013-05-21 14:01:00,63.9,41.0,29.54,NW,323,8.0,15.0,43,0.00,,,0.00,VWS V14.01,2013-05-21 21:01:00,
2013-05-21 14:06:00,63.7,41.4,29.55,NW,313,9.0,15.0,44,0.00,,,0.00,VWS V14.01,2013-05-21 21:06:00,
2013-05-21 14:11:00,63.7,41.4,29.55,NW,322,12.0,15.0,44,0.00,,,0.00,VWS V14.01,2013-05-21 21:11:00,
2013-05-21 14:16:00,63.5,41.2,29.54,NW,322,11.0,15.0,44,0.00,,,0.00,VWS V14.01,2013-05-21 21:16:00,
2013-05-21 14:21:00,63.5,41.8,29.54,NNW,335,8.0,15.0,45,0.00,,,0.00,VWS V14.01,2013-05-21 21:21:00,
2013-05-21 14:26:00,63.7,42.0,29.55,NW,319,9.0,15.0,45,0.00,,,0.00,VWS V14.01,2013-05-21 21:26:00,
2013-05-21 14:30:00,84.3,40.2,29.52,SSE,158,2.0,10.0,21,0.00,,,0.00,VWS V14.01,2013-05-21 21:30:00,
2013-05-21 14:31:00,63.9,42.2,29.55,NW,318,7.0,15.0,45,0.00,,,0.00,VWS V14.01,2013-05-21 21:31:00,
2013-05-21 14:36:00,64.2,42.4,29.54,NW,320,2.0,15.0,45,0.00,,,0.00,VWS V14.01,2013-05-21 21:36:00,
2013-05-21 14:41:00,64.8,42.4,29.54,NW,324,10.0,15.0,44,0.00,,,0.00,VWS V14.01,2013-05-21 21:41:00,
2013-05-21 14:46:00,64.4,41.4,29.53,NW,326,6.0,15.0,43,0.00,,,0.00,VWS V14.01,2013-05-21 21:46:00,
2013-05-21 14:51:00,64.0,41.7,29.54,NW,325,10.0,15.0,44,0.00,,,0.00,VWS V14.01,2013-05-21 21:51:00,
2013-05-21 14:56:00,64.2,41.8,29.54,NW,308,11.0,15.0,44,0.00,,,0.00,VWS V14.01,2013-05-21 21:56:00,
2013-05-21 15:00:00,84.7,39.2,29.52,SSE,158,2.0,10.0,20,0.00,,,0.00,VWS V14.01,2013-05-21 22:00:00,
2013-05-21 15:01:00,64.1,41.2,29.53,WNW,289,3.0,15.0,43,0.00,,,0.00,VWS V14.01,2013-05-21 22:01:00,
2013-05-21 15:06:00,63.5,40.6,29.54,NNW,328,4.0,15.0,43,0.00,,,0.00,VWS V14.01,2013-05-21 22:06:00,
2013-05-21 15:11:00,63.4,41.1,29.53,NW,317,5.0,15.0,44,0.00,,,0.00,VWS V14.01,2013-05-21 22:11:00,
2013-05-21 15:16:00,63.1,40.9,29.54,NNW,327,8.0,15.0,44,0.00,,,0.00,VWS V14.01,2013-05-21 22:16:00,
2013-05-21 15:21:00,62.9,40.7,29.54,NNW,348,6.0,15.0,44,0.00,,,0.00,VWS V14.01,2013-05-21 22:21:00,
2013-05-21 15:26:00,63.0,41.3,29.53,NW,324,5.0,18.0,45,0.00,,,0.00,VWS V14.01,2013-05-21 22:26:00,
2013-05-21 15:30:00,87.7,34.4,29.51,West,270,2.0,8.0,15,0.00,,,0.00,VWS V14.01,2013-05-21 22:30:00,
2013-05-21 15:31:00,63.0,40.8,29.54,NNW,348,7.0,18.0,44,0.00,,,0.00,VWS V14.01,2013-05-21 22:31:00,
2013-05-21 15:36:00,62.5,40.9,29.53,NW,323,12.0,18.0,45,0.00,,,0.00,VWS V14.01,2013-05-21 22:36:00,
2013-05-21 15:41:00,62.5,40.3,29.52,NW,310,8.0,18.0,44,0.00,,,0.00,VWS V14.01,2013-05-21 22:41:00,
2013-05-21 15:46:00,62.1,40.5,29.53,NW,325,9.0,18.0,45,0.00,,,0.00,VWS V14.01,2013-05-21 22:46:00,
2013-05-21 15:52:00,62.1,40.5,29.52,NW,318,5.0,18.0,45,0.00,,,0.00,VWS V14.01,2013-05-21 22:52:00,
2013-05-21 15:57:00,62.3,40.1,29.52,North,349,2.0,18.0,44,0.00,,,0.00,VWS V14.01,2013-05-21 22:57:00,
2013-05-21 16:00:00,88.5,36.6,29.50,WNW,292,3.0,9.0,16,0.00,,,0.00,VWS V14.01,2013-05-21 23:00:00,
2013-05-21 16:02:00,61.8,40.8,29.52,NNW,327,6.0,21.0,46,0.00,,,0.00,VWS V14.01,2013-05-21 23:02:00,
2013-05-21 16:07:00,61.9,40.9,29.51,NNW,330,6.0,21.0,46,0.00,,,0.00,VWS V14.01,2013-05-21 23:07:00,
2013-05-21 16:12:00,62.2,41.2,29.51,NNW,327,1.0,21.0,46,0.00,,,0.00,VWS V14.01,2013-05-21 23:12:00,
2013-05-21 16:17:00,62.8,41.7,29.50,NW,314,3.0,21.0,46,0.00,,,0.00,VWS V14.01,2013-05-21 23:17:00,
2013-05-21 16:22:00,63.1,41.4,29.50,NW,314,6.0,21.0,45,0.00,,,0.00,VWS V14.01,2013-05-21 23:22:00,
2013-05-21 16:27:00,62.6,41.5,29.50,NW,326,3.0,21.0,46,0.00,,,0.00,VWS V14.01,2013-05-21 23:27:00,
2013-05-21 16:30:00,88.1,34.7,29.50,NNW,338,3.0,18.0,15,0.00,,,0.00,VWS V14.01,2013-05-21 23:30:00,
2013-05-21 16:32:00,62.1,41.7,29.50,NNW,336,5.0,21.0,47,0.00,,,0.00,VWS V14.01,2013-05-21 23:32:00,
2013-05-21 16:37:00,61.9,41.5,29.49,NW,305,10.0,21.0,47,0.00,,,0.00,VWS V14.01,2013-05-21 23:37:00,
2013-05-21 16:42:00,61.6,41.7,29.49,NW,322,9.0,21.0,48,0.00,,,0.00,VWS V14.01,2013-05-21 23:42:00,
2013-05-21 16:47:00,61.3,41.5,29.49,NW,320,14.0,21.0,48,0.00,,,0.00,VWS V14.01,2013-05-21 23:47:00,
2013-05-21 16:52:00,61.2,41.4,29.49,NW,306,7.0,21.0,48,0.00,,,0.00,VWS V14.01,2013-05-21 23:52:00,
2013-05-21 16:57:00,60.9,41.1,29.49,NW,326,13.0,21.0,48,0.00,,,0.00,VWS V14.01,2013-05-21 23:57:00,
2013-05-21 17:00:00,87.0,37.0,29.49,North,0,3.0,9.0,17,0.00,,,0.00,VWS V14.01,2013-05-22 00:00:00,
2013-05-21 17:02:00,60.6,41.4,29.49,WNW,295,8.0,21.0,49,0.00,,,0.00,VWS V14.01,2013-05-22 00:02:00,
2013-05-21 17:07:00,60.3,41.1,29.50,WNW,302,2.0,21.0,49,0.00,,,0.00,VWS V14.01,2013-05-22 00:07:00,
2013-05-21 17:12:00,60.5,40.7,29.50,NW,320,6.0,21.0,48,0.00,,,0.00,VWS V14.01,2013-05-22 00:12:00,
2013-05-21 17:17:00,60.4,41.2,29.50,NW,318,7.0,21.0,49,0.00,,,0.00,VWS V14.01,2013-05-22 00:17:00,
2013-05-21 17:22:00,60.3,41.6,29.50,NW,324,9.0,21.0,50,0.00,,,0.00,VWS V14.01,2013-05-22 00:22:00,
2013-05-21 17:27:00,60.1,41.4,29.50,NW,313,6.0,21.0,50,0.00,,,0.00,VWS V14.01,2013-05-22 00:27:00,
2013-05-21 17:30:00,86.6,39.5,29.49,NNW,338,4.0,10.0,19,0.00,,,0.00,VWS V14.01,2013-05-22 00:30:00,
2013-05-21 17:32:00,60.0,41.3,29.50,NW,326,8.0,21.0,50,0.00,,,0.00,VWS V14.01,2013-05-22 00:32:00,
2013-05-21 17:37:00,60.0,41.8,29.50,NNW,346,7.0,21.0,51,0.00,,,0.00,VWS V14.01,2013-05-22 00:37:00,
2013-05-21 17:42:00,60.2,41.5,29.50,NW,326,5.0,21.0,50,0.00,,,0.00,VWS V14.01,2013-05-22 00:42:00,
2013-05-21 17:47:00,60.0,41.3,29.49,NW,325,7.0,21.0,50,0.00,,,0.00,VWS V14.01,2013-05-22 00:47:00,
2013-05-21 17:52:00,59.8,41.1,29.49,NW,324,5.0,21.0,50,0.00,,,0.00,VWS V14.01,2013-05-22 00:52:00,
2013-05-21 17:57:00,59.9,41.2,29.49,NW,318,9.0,21.0,50,0.00,,,0.00,VWS V14.01,2013-05-22 00:57:00,
2013-05-21 18:00:00,84.1,37.4,29.48,NNW,338,5.0,9.0,19,0.00,,,0.00,VWS V14.01,2013-05-22 01:00:00,
2013-05-21 18:02:00,59.6,41.0,29.49,NNW,327,10.0,21.0,50,0.00,,,0.00,VWS V14.01,2013-05-22 01:02:00,
2013-05-21 18:07:00,59.3,41.2,29.48,NW,320,4.0,21.0,51,0.00,,,0.00,VWS V14.01,2013-05-22 01:07:00,
2013-05-21 18:12:00,58.9,40.8,29.48,NW,324,8.0,21.0,51,0.00,,,0.00,VWS V14.01,2013-05-22 01:12:00,
2013-05-21 18:17:00,58.4,40.9,29.48,WNW,290,4.0,21.0,52,0.00,,,0.00,VWS V14.01,2013-05-22 01:17:00,
2013-05-21 18:22:00,58.2,41.2,29.48,NNW,331,4.0,21.0,53,0.00,,,0.00,VWS V14.01,2013-05-22 01:22:00,
2013-05-21 18:27:00,58.0,41.0,29.48,NW,311,5.0,21.0,53,0.00,,,0.00,VWS V14.01,2013-05-22 01:27:00,
2013-05-21 18:30:00,82.0,37.0,29.48,NNW,338,5.0,10.0,20,0.00,,,0.00,VWS V14.01,2013-05-22 01:30:00,
2013-05-21 18:32:00,57.9,40.9,29.48,NW,312,7.0,21.0,53,0.00,,,0.00,VWS V14.01,2013-05-22 01:32:00,
2013-05-21 18:37:00,57.7,40.7,29.48,NNW,328,5.0,21.0,53,0.00,,,0.00,VWS V14.01,2013-05-22 01:37:00,
2013-05-21 18:42:00,57.5,40.5,29.48,NW,316,5.0,21.0,53,0.00,,,0.00,VWS V14.01,2013-05-22 01:42:00,
2013-05-21 18:47:00,57.4,40.4,29.49,NW,316,5.0,21.0,53,0.00,,,0.00,VWS V14.01,2013-05-22 01:47:00,
2013-05-21 18:52:00,57.2,40.2,29.48,NW,316,2.0,21.0,53,0.00,,,0.00,VWS V14.01,2013-05-22 01:52:00,
2013-05-21 18:57:00,57.0,40.1,29.49,NNW,347,4.0,21.0,53,0.00,,,0.00,VWS V14.01,2013-05-22 01:57:00,
2013-05-21 19:00:00,78.7,38.9,29.47,NW,315,6.0,10.0,24,0.00,,,0.00,VWS V14.01,2013-05-22 02:00:00,
2013-05-21 19:02:00,56.7,40.3,29.48,NNW,341,4.0,21.0,54,0.00,,,0.00,VWS V14.01,2013-05-22 02:02:00,
2013-05-21 19:07:00,56.5,40.1,29.49,NW,324,3.0,21.0,54,0.00,,,0.00,VWS V14.01,2013-05-22 02:07:00,
2013-05-21 19:12:00,56.1,39.7,29.48,North,5,1.0,21.0,54,0.00,,,0.00,VWS V14.01,2013-05-22 02:12:00,
2013-05-21 19:17:00,55.7,39.8,29.48,NNW,336,6.0,21.0,55,0.00,,,0.00,VWS V14.01,2013-05-22 02:17:00,
2013-05-21 19:22:00,55.3,39.4,29.48,NNW,328,5.0,21.0,55,0.00,,,0.00,VWS V14.01,2013-05-22 02:22:00,
2013-05-21 19:27:00,55.0,39.6,29.48,NW,321,9.0,21.0,56,0.00,,,0.00,VWS V14.01,2013-05-22 02:27:00,
2013-05-21 19:30:00,76.5,38.1,29.47,NNW,338,5.0,10.0,25,0.00,,,0.00,VWS V14.01,2013-05-22 02:30:00,
2013-05-21 19:32:00,54.7,39.8,29.49,NNW,329,9.0,21.0,57,0.00,,,0.00,VWS V14.01,2013-05-22 02:32:00,
2013-05-21 19:37:00,54.6,39.7,29.48,NW,324,13.0,21.0,57,0.00,,,0.00,VWS V14.01,2013-05-22 02:37:00,
2013-05-21 19:42:00,54.1,39.7,29.48,NW,316,11.0,21.0,58,0.00,,,0.00,VWS V14.01,2013-05-22 02:42:00,
2013-05-21 19:47:00,53.7,39.7,29.49,NW,323,12.0,21.0,59,0.00,,,0.00,VWS V14.01,2013-05-22 02:47:00,
2013-05-21 19:52:00,53.5,39.5,29.49,NW,315,6.0,21.0,59,0.00,,,0.00,VWS V14.01,2013-05-22 02:52:00,
2013-05-21 19:57:00,53.2,39.7,29.49,NW,304,10.0,21.0,60,0.00,,,0.00,VWS V14.01,2013-05-22 02:57:00,
2013-05-21 20:00:00,75.2,39.0,29.47,NNW,338,4.0,8.0,27,0.00,,,0.00,VWS V14.01,2013-05-22 03:00:00,
2013-05-21 20:02:00,52.9,39.4,29.50,NW,321,12.0,21.0,60,0.00,,,0.00,VWS V14.01,2013-05-22 03:02:00,
2013-05-21 20:07:00,52.8,39.3,29.50,NW,322,5.0,21.0,60,0.00,,,0.00,VWS V14.01,2013-05-22 03:07:00,
2013-05-21 20:12:00,52.5,39.0,29.51,NW,325,7.0,21.0,60,0.00,,,0.00,VWS V14.01,2013-05-22 03:12:00,
2013-05-21 20:17:00,52.4,38.9,29.51,NW,325,10.0,21.0,60,0.00,,,0.00,VWS V14.01,2013-05-22 03:17:00,
2013-05-21 20:22:00,52.2,38.8,29.50,NW,322,10.0,21.0,60,0.00,,,0.00,VWS V14.01,2013-05-22 03:22:00,
2013-05-21 20:27:00,52.1,38.7,29.51,NW,320,7.0,21.0,60,0.00,,,0.00,VWS V14.01,2013-05-22 03:27:00,
2013-05-21 20:30:00,72.7,39.5,29.47,NNW,338,4.0,9.0,30,0.00,,,0.00,VWS V14.01,2013-05-22 03:30:00,
2013-05-21 20:32:00,51.9,38.5,29.50,NW,320,6.0,21.0,60,0.00,,,0.00,VWS V14.01,2013-05-22 03:32:00,
2013-05-21 20:37:00,51.8,38.8,29.51,NNW,327,6.0,21.0,61,0.00,,,0.00,VWS V14.01,2013-05-22 03:37:00,
2013-05-21 20:42:00,51.5,38.5,29.51,NW,319,11.0,21.0,61,0.00,,,0.00,VWS V14.01,2013-05-22 03:42:00,
2013-05-21 20:47:00,51.5,38.5,29.51,NW,316,8.0,21.0,61,0.00,,,0.00,VWS V14.01,2013-05-22 03:47:00,
2013-05-21 20:52:00,51.4,38.4,29.51,NNW,337,6.0,21.0,61,0.00,,,0.00,VWS V14.01,2013-05-22 03:52:00,
2013-05-21 20:57:00,51.3,38.7,29.51,NNW,342,8.0,21.0,62,0.00,,,0.00,VWS V14.01,2013-05-22 03:57:00,
2013-05-21 21:00:00,69.0,39.5,29.47,North,0,4.0,10.0,34,0.00,,,0.00,VWS V14.01,2013-05-22 04:00:00,
2013-05-21 21:02:00,51.2,38.6,29.50,NW,312,11.0,21.0,62,0.00,,,0.00,VWS V14.01,2013-05-22 04:02:00,
2013-05-21 21:07:00,51.1,38.1,29.51,NW,316,7.0,21.0,61,0.00,,,0.00,VWS V14.01,2013-05-22 04:07:00,
2013-05-21 21:12:00,51.1,38.1,29.51,NW,318,6.0,21.0,61,0.00,,,0.00,VWS V14.01,2013-05-22 04:12:00,
2013-05-21 21:17:00,50.9,38.0,29.52,North,349,6.0,21.0,61,0.00,,,0.00,VWS V14.01,2013-05-22 04:17:00,
2013-05-21 21:22:00,50.8,37.8,29.53,NNW,339,1.0,21.0,61,0.00,,,0.00,VWS V14.01,2013-05-22 04:22:00,
2013-05-21 21:27:00,50.9,38.0,29.53,North,350,4.0,21.0,61,0.00,,,0.00,VWS V14.01,2013-05-22 04:27:00,
2013-05-21 21:30:00,64.8,42.4,29.47,NNW,338,5.0,10.0,44,0.00,,,0.00,VWS V14.01,2013-05-22 04:30:00,
2013-05-21 21:32:00,50.8,37.8,29.53,NNW,347,6.0,21.0,61,0.00,,,0.00,VWS V14.01,2013-05-22 04:32:00,
2013-05-21 21:37:00,50.6,37.7,29.52,NNW,331,8.0,21.0,61,0.00,,,0.00,VWS V14.01,2013-05-22 04:37:00,
2013-05-21 21:42:00,50.5,37.6,29.53,NNW,334,7.0,21.0,61,0.00,,,0.00,VWS V14.01,2013-05-22 04:42:00,
2013-05-21 21:47:00,50.4,37.5,29.53,NNW,328,9.0,21.0,61,0.00,,,0.00,VWS V14.01,2013-05-22 04:47:00,
2013-05-21 21:52:00,50.5,38.0,29.54,NNW,327,13.0,21.0,62,0.00,,,0.00,VWS V14.01,2013-05-22 04:52:00,
2013-05-21 21:57:00,50.3,37.8,29.54,NW,326,12.0,21.0,62,0.00,,,0.00,VWS V14.01,2013-05-22 04:57:00,
2013-05-21 22:00:00,60.3,42.6,29.47,NNW,338,5.0,9.0,52,0.00,,,0.00,VWS V14.01,2013-05-22 05:00:00,
2013-05-21 22:02:00,50.3,37.8,29.53,NNW,330,10.0,21.0,62,0.00,,,0.00,VWS V14.01,2013-05-22 05:02:00,
2013-05-21 22:07:00,50.3,37.8,29.54,NW,324,11.0,21.0,62,0.00,,,0.00,VWS V14.01,2013-05-22 05:07:00,
2013-05-21 22:12:00,50.2,37.7,29.54,NNW,338,7.0,21.0,62,0.00,,,0.00,VWS V14.01,2013-05-22 05:12:00,
2013-05-21 22:17:00,50.1,37.2,29.53,NW,325,9.0,21.0,61,0.00,,,0.00,VWS V14.01,2013-05-22 05:17:00,
2013-05-21 22:22:00,50.0,37.1,29.54,NNW,329,11.0,21.0,61,0.00,,,0.00,VWS V14.01,2013-05-22 05:22:00,
2013-05-21 22:27:00,50.0,37.1,29.53,NNW,338,7.0,21.0,61,0.00,,,0.00,VWS V14.01,2013-05-22 05:27:00,
2013-05-21 22:30:00,57.3,42.2,29.49,NNW,338,5.0,10.0,57,0.00,,,0.00,VWS V14.01,2013-05-22 05:30:00,
2013-05-21 22:32:00,49.9,37.0,29.54,NNW,347,6.0,21.0,61,0.00,,,0.00,VWS V14.01,2013-05-22 05:32:00,
2013-05-21 22:37:00,49.9,37.0,29.53,NNW,342,10.0,21.0,61,0.00,,,0.00,VWS V14.01,2013-05-22 05:37:00,
2013-05-21 22:42:00,49.9,37.0,29.53,NW,326,11.0,21.0,61,0.00,,,0.00,VWS V14.01,2013-05-22 05:42:00,
2013-05-21 22:47:00,49.9,36.6,29.54,NNW,339,6.0,21.0,60,0.00,,,0.00,VWS V14.01,2013-05-22 05:47:00,
2013-05-21 22:52:00,49.7,36.8,29.54,NNW,343,9.0,21.0,61,0.00,,,0.00,VWS V14.01,2013-05-22 05:52:00,
2013-05-21 22:57:00,49.6,36.7,29.54,NNW,336,6.0,21.0,61,0.00,,,0.00,VWS V14.01,2013-05-22 05:57:00,
2013-05-21 23:00:00,55.6,42.8,29.50,NNW,338,5.0,10.0,62,0.00,,,0.00,VWS V14.01,2013-05-22 06:00:00,
2013-05-21 23:02:00,49.6,36.7,29.54,NNW,332,8.0,21.0,61,0.00,,,0.00,VWS V14.01,2013-05-22 06:02:00,
2013-05-21 23:07:00,49.5,36.6,29.55,NNW,337,9.0,21.0,61,0.00,,,0.00,VWS V14.01,2013-05-22 06:07:00,
2013-05-21 23:12:00,49.3,36.4,29.54,NNW,329,0.0,21.0,61,0.00,,,0.00,VWS V14.01,2013-05-22 06:12:00,
2013-05-21 23:17:00,49.2,36.8,29.54,NNW,330,8.0,21.0,62,0.00,,,0.00,VWS V14.01,2013-05-22 06:17:00,
2013-05-21 23:22:00,49.0,36.6,29.54,NW,322,5.0,21.0,62,0.00,,,0.00,VWS V14.01,2013-05-22 06:22:00,
2013-05-21 23:27:00,49.0,36.6,29.55,NNW,329,6.0,21.0,62,0.00,,,0.00,VWS V14.01,2013-05-22 06:27:00,
2013-05-21 23:30:00,54.4,43.3,29.49,NNW,338,4.0,8.0,66,0.00,,,0.00,VWS V14.01,2013-05-22 06:30:00,
2013-05-21 23:32:00,48.9,36.5,29.55,NNW,334,3.0,21.0,62,0.00,,,0.00,VWS V14.01,2013-05-22 06:32:00,
2013-05-21 23:37:00,48.9,36.5,29.54,NNW,347,4.0,21.0,62,0.00,,,0.00,VWS V14.01,2013-05-22 06:37:00,
2013-05-21 23:42:00,48.9,36.1,29.54,NNW,327,5.0,21.0,61,0.00,,,0.00,VWS V14.01,2013-05-22 06:42:00,
2013-05-21 23:48:00,48.8,36.4,29.54,NNW,331,4.0,21.0,62,0.00,,,0.00,VWS V14.01,2013-05-22 06:48:00,
2013-05-21 23:53:00,48.8,36.0,29.55,NNW,339,4.0,21.0,61,0.00,,,0.00,VWS V14.01,2013-05-22 06:53:00,
2013-05-21 23:58:00,48.8,36.0,29.55,NNW,342,2.0,21.0,61,0.00,,,0.00,VWS V14.01,2013-05-22 06:58:00,